Time;durP1;ratioP1;P1;durP2;ratioP2;P2;SDS_P1;SDS_P2;PMS_P1;PMS_P2;Temp;Humidity;BMP_temperature;BMP_pressure;BME280_temperature;BME280_humidity;BME280_pressure;Samples;Min_cycle;Max_cycle;Signal;HPM_P1;HPM_P2
2022/03/05 00:00:13;;;;;;;25.85;13.38;;;;;;;4.90;60.17;99562.50;5072609;28;20025;-50
2022/03/05 00:02:39;;;;;;;21.77;13.15;;;;;;;5.70;57.46;99567.69;5054146;28;20395;-48
2022/03/05 00:05:04;;;;;;;25.92;13.93;;;;;;;5.18;59.20;99563.84;5071267;28;20082;-49
2022/03/05 00:07:30;;;;;;;24.98;13.98;;;;;;;4.90;59.80;99557.22;5071288;28;20024;-48
2022/03/05 00:09:56;;;;;;;25.33;14.02;;;;;;;4.85;60.28;99564.81;5072248;28;20043;-48
2022/03/05 00:12:22;;;;;;;22.75;13.40;;;;;;;4.72;59.77;99567.19;5072317;28;20028;-49
2022/03/05 00:14:47;;;;;;;25.17;13.77;;;;;;;4.78;60.21;99563.03;5072072;28;20385;-50
2022/03/05 00:17:13;;;;;;;24.02;13.27;;;;;;;4.64;60.92;99561.94;5072389;28;20020;-48
2022/03/05 00:19:38;;;;;;;26.88;13.82;;;;;;;5.59;57.75;99563.63;5072521;28;20024;-49
2022/03/05 00:22:04;;;;;;;22.48;13.30;;;;;;;5.17;59.96;99562.22;5072000;28;20040;-50
2022/03/05 00:24:29;;;;;;;22.17;13.55;;;;;;;4.88;61.02;99558.41;5072268;28;20477;-48
2022/03/05 00:26:54;;;;;;;24.13;13.30;;;;;;;4.51;61.94;99559.81;5071936;28;20024;-49
2022/03/05 00:29:20;;;;;;;21.52;13.13;;;;;;;4.60;61.01;99556.19;5071888;28;20035;-50
2022/03/05 00:31:45;;;;;;;22.25;13.02;;;;;;;4.59;60.88;99554.56;5072213;28;20082;-49
2022/03/05 00:34:11;;;;;;;24.92;14.00;;;;;;;4.82;60.74;99553.81;5072379;28;20021;-51
2022/03/05 00:36:38;;;;;;;23.10;13.10;;;;;;;5.79;57.45;99548.97;5071850;28;20465;-51
2022/03/05 00:39:04;;;;;;;24.65;13.90;;;;;;;5.13;59.60;99558.28;5072487;28;20031;-50
2022/03/05 00:41:29;;;;;;;22.92;13.18;;;;;;;4.60;61.54;99534.28;5072272;28;20021;-49
2022/03/05 00:43:55;;;;;;;24.50;13.13;;;;;;;4.41;61.41;99551.28;5068833;28;20101;-49
2022/03/05 00:46:20;;;;;;;24.38;13.50;;;;;;;4.33;62.07;99553.97;5052187;28;20028;-52
2022/03/05 00:48:46;;;;;;;22.67;13.30;;;;;;;4.19;62.93;99553.66;5052424;28;20028;-48
2022/03/05 00:51:11;;;;;;;22.83;13.45;;;;;;;4.25;62.77;99558.25;5060401;28;20020;-51
2022/03/05 00:53:37;;;;;;;25.20;14.32;;;;;;;4.27;62.82;99558.06;5072348;28;20115;-51
2022/03/05 00:56:02;;;;;;;28.77;16.40;;;;;;;4.96;60.03;99555.72;5071108;28;20012;-49
2022/03/05 00:58:28;;;;;;;26.95;15.05;;;;;;;5.00;59.16;99558.84;5072230;28;20024;-51
2022/03/05 01:00:53;;;;;;;27.20;15.65;;;;;;;4.52;61.01;99563.31;5071981;28;20082;-49
2022/03/05 01:03:19;;;;;;;25.63;14.48;;;;;;;4.27;61.33;99563.34;5071671;28;20024;-49
2022/03/05 01:05:44;;;;;;;26.15;14.25;;;;;;;4.36;61.34;99564.13;5071672;28;20028;-49
2022/03/05 01:08:10;;;;;;;24.15;13.73;;;;;;;4.37;61.50;99555.25;5052688;28;20087;-51
2022/03/05 01:10:36;;;;;;;23.85;13.48;;;;;;;4.97;59.48;99553.91;5051821;28;20109;-49
2022/03/05 01:13:03;;;;;;;23.60;14.05;;;;;;;4.78;60.48;99555.97;5052123;28;20100;-48
2022/03/05 01:15:28;;;;;;;26.52;14.98;;;;;;;4.28;62.42;99557.91;5051807;28;20043;-50
2022/03/05 01:17:54;;;;;;;24.80;13.88;;;;;;;4.20;62.96;99559.72;5052399;28;20024;-49
2022/03/05 01:20:19;;;;;;;26.02;14.98;;;;;;;4.16;63.04;99559.22;5052195;28;20033;-48
2022/03/05 01:22:44;;;;;;;30.33;16.13;;;;;;;4.37;62.43;99561.34;5057676;28;20061;-49
2022/03/05 01:25:10;;;;;;;29.75;16.45;;;;;;;5.01;60.84;99563.94;5071729;28;20518;-49
2022/03/05 01:27:35;;;;;;;27.25;15.98;;;;;;;4.87;61.15;99560.22;5071361;28;20380;-50
2022/03/05 01:30:01;;;;;;;29.55;16.33;;;;;;;4.36;62.72;99570.25;5071656;28;20023;-51
2022/03/05 01:32:26;;;;;;;26.50;15.50;;;;;;;4.61;62.78;99563.09;5072023;28;20028;-49
2022/03/05 01:34:52;;;;;;;31.02;15.88;;;;;;;4.21;63.91;99566.66;5071810;28;20028;-49
2022/03/05 01:37:17;;;;;;;25.73;14.85;;;;;;;4.15;64.01;99565.50;5071877;28;20724;-49
2022/03/05 01:39:43;;;;;;;28.85;16.00;;;;;;;4.31;63.01;99567.28;5072211;28;20141;-50
2022/03/05 01:42:08;;;;;;;25.55;15.63;;;;;;;4.36;62.73;99577.31;5071456;28;20043;-50
2022/03/05 01:44:34;;;;;;;28.80;15.60;;;;;;;4.53;62.24;99570.19;5062613;28;20024;-49
2022/03/05 01:47:03;;;;;;;25.92;14.80;;;;;;;4.37;62.57;99566.59;5051463;28;20484;-49
2022/03/05 01:49:29;;;;;;;30.83;15.23;;;;;;;4.19;63.10;99568.59;5049813;28;20031;-50
2022/03/05 01:51:56;;;;;;;25.13;14.38;;;;;;;4.28;63.19;99568.47;5051154;28;20035;-50
2022/03/05 01:54:21;;;;;;;27.63;15.40;;;;;;;4.28;64.00;99562.34;5051150;28;20654;-49
2022/03/05 01:56:47;;;;;;;26.08;14.93;;;;;;;4.27;63.12;99565.97;5051278;28;20029;-52
2022/03/05 01:59:12;;;;;;;30.27;15.10;;;;;;;4.38;63.10;99565.63;5033578;28;20021;-47
2022/03/05 02:01:37;;;;;;;25.33;14.63;;;;;;;4.35;62.89;99568.59;5049739;28;20020;-50
2022/03/05 02:04:03;;;;;;;29.20;15.32;;;;;;;4.33;64.87;99572.41;5050963;28;20025;-50
2022/03/05 02:06:29;;;;;;;25.65;15.35;;;;;;;4.48;63.37;99554.91;5050652;28;20017;-48
2022/03/05 02:08:56;;;;;;;25.58;14.75;;;;;;;5.05;60.66;99570.53;5050860;28;20028;-50
2022/03/05 02:11:21;;;;;;;26.38;14.75;;;;;;;4.70;62.59;99566.53;5051223;28;20071;-49
2022/03/05 02:13:47;;;;;;;26.13;13.73;;;;;;;4.33;63.07;99570.56;5051190;28;20443;-48
2022/03/05 02:16:12;;;;;;;27.48;14.98;;;;;;;4.37;63.20;99566.59;5064261;28;20384;-48
2022/03/05 02:18:38;;;;;;;28.67;15.55;;;;;;;4.37;63.74;99571.06;5071220;28;20033;-47
2022/03/05 02:21:04;;;;;;;27.92;15.05;;;;;;;4.10;64.51;99571.25;5070867;28;20040;-47
2022/03/05 02:23:29;;;;;;;29.90;15.68;;;;;;;3.85;65.59;99570.44;5070514;28;20056;-48
2022/03/05 02:25:56;;;;;;;28.58;16.00;;;;;;;3.91;65.37;99569.78;5070210;28;20094;-47
2022/03/05 02:28:23;;;;;;;35.90;15.55;;;;;;;3.99;64.99;99570.78;5070374;28;20465;-48
2022/03/05 02:30:48;;;;;;;29.55;15.93;;;;;;;3.90;65.31;99573.41;5070494;28;20024;-47
2022/03/05 02:33:14;;;;;;;35.03;17.85;;;;;;;4.12;64.94;99568.47;5070729;28;20074;-49
2022/03/05 02:35:40;;;;;;;32.30;17.83;;;;;;;4.57;62.79;99576.78;5070600;28;20541;-37
2022/03/05 02:38:06;;;;;;;33.78;17.88;;;;;;;4.44;63.17;99566.78;5070731;28;20038;-37
2022/03/05 02:40:31;;;;;;;33.58;17.65;;;;;;;3.89;64.99;99576.22;5069778;28;20021;-37
2022/03/05 02:42:57;;;;;;;33.05;17.20;;;;;;;3.84;66.01;99571.41;5052167;28;20036;-37
2022/03/05 02:45:22;;;;;;;32.10;17.50;;;;;;;3.71;67.14;99569.28;5054743;28;20075;-37
2022/03/05 02:47:48;;;;;;;33.13;16.92;;;;;;;3.75;66.86;99568.94;5050142;28;20036;-37
2022/03/05 02:50:13;;;;;;;34.10;18.05;;;;;;;3.39;67.41;99571.84;5050705;28;20047;-37
2022/03/05 02:52:39;;;;;;;31.20;17.48;;;;;;;3.36;67.70;99577.44;5070225;28;20103;-37
2022/03/05 02:55:05;;;;;;;31.42;16.98;;;;;;;3.66;67.93;99578.66;5070353;28;20030;-37
2022/03/05 02:57:31;;;;;;;30.63;16.40;;;;;;;3.56;67.33;99577.97;5070389;28;20032;-37
2022/03/05 02:59:56;;;;;;;34.90;18.13;;;;;;;3.59;68.63;99573.22;5070398;28;20546;-37
2022/03/05 03:02:21;;;;;;;34.38;18.67;;;;;;;3.51;68.82;99571.38;5069787;28;20016;-37
2022/03/05 03:04:47;;;;;;;34.42;18.48;;;;;;;3.50;69.18;99559.22;5069940;28;20102;-37
2022/03/05 03:07:12;;;;;;;37.15;18.25;;;;;;;3.55;68.00;99568.44;5069720;28;20032;-37
2022/03/05 03:09:38;;;;;;;36.75;19.45;;;;;;;3.54;68.83;99567.59;5069960;28;20047;-36
2022/03/05 03:12:04;;;;;;;38.67;20.85;;;;;;;3.67;68.78;99575.84;5070331;28;20028;-37
2022/03/05 03:14:29;;;;;;;34.42;19.10;;;;;;;3.59;68.84;99561.88;5070158;28;20063;-36
2022/03/05 03:16:54;;;;;;;35.47;18.83;;;;;;;3.52;69.52;99583.56;5070246;28;20382;-36
2022/03/05 03:19:20;;;;;;;38.83;20.88;;;;;;;4.18;66.90;99574.88;5069775;28;20027;-37
2022/03/05 03:21:46;;;;;;;38.42;20.33;;;;;;;4.30;66.38;99561.19;5069840;28;20039;-37
2022/03/05 03:24:11;;;;;;;38.90;20.08;;;;;;;4.14;67.23;99589.38;5069446;28;20203;-37
2022/03/05 03:26:37;;;;;;;37.20;20.23;;;;;;;3.86;68.44;99590.50;5069702;28;20037;-37
2022/03/05 03:29:02;;;;;;;39.90;20.88;;;;;;;3.87;69.11;99589.53;5069768;28;20035;-36
2022/03/05 03:31:28;;;;;;;38.17;20.42;;;;;;;3.80;69.14;99579.81;5069854;28;20456;-36
2022/03/05 03:33:53;;;;;;;44.47;21.73;;;;;;;3.74;69.79;99585.75;5069965;28;20029;-37
2022/03/05 03:36:18;;;;;;;43.65;21.13;;;;;;;3.71;70.10;99598.25;5070174;28;20021;-37
2022/03/05 03:38:44;;;;;;;39.55;21.05;;;;;;;4.01;68.43;99600.41;5069838;28;20028;-36
2022/03/05 03:41:09;;;;;;;42.05;20.42;;;;;;;4.00;68.08;99596.09;5069734;28;20036;-36
2022/03/05 03:43:35;;;;;;;39.55;20.38;;;;;;;3.86;68.93;99595.75;5069020;28;20035;-38
2022/03/05 03:46:00;;;;;;;37.17;20.65;;;;;;;3.97;68.73;99601.72;5049479;28;20029;-38
2022/03/05 03:48:26;;;;;;;42.17;20.67;;;;;;;3.89;69.32;99598.09;5049911;28;20025;-36
2022/03/05 03:50:51;;;;;;;43.97;20.40;;;;;;;4.09;69.03;99605.66;5055678;28;20031;-38
2022/03/05 03:53:17;;;;;;;37.83;19.88;;;;;;;4.96;64.91;99599.75;5069899;28;20464;-48
2022/03/05 03:55:42;;;;;;;38.22;20.15;;;;;;;4.47;66.02;99604.16;5069617;28;20033;-52
2022/03/05 03:58:08;;;;;;;41.22;20.65;;;;;;;3.96;68.04;99589.53;5069677;28;20082;-49
2022/03/05 04:00:33;;;;;;;39.50;20.85;;;;;;;3.96;69.37;99606.16;5069554;28;20036;-49
2022/03/05 04:02:59;;;;;;;40.83;21.42;;;;;;;4.04;69.09;99608.78;5069297;28;20039;-49
2022/03/05 04:05:25;;;;;;;38.13;20.65;;;;;;;4.03;69.09;99607.13;5069231;28;20089;-50
2022/03/05 04:10:34;;;;;;;39.42;21.00;;;;;;;3.97;69.62;99614.88;5069567;28;20070;-49
2022/03/05 04:13:00;;;;;;;40.42;20.48;;;;;;;3.99;69.52;99612.91;5069650;28;20032;-49
2022/03/05 04:15:25;;;;;;;40.40;21.40;;;;;;;3.83;70.18;99606.63;5069387;28;20125;-51
2022/03/05 04:17:51;;;;;;;40.53;21.30;;;;;;;3.86;70.60;99618.66;5069839;28;20024;-49
2022/03/05 04:20:16;;;;;;;38.22;21.35;;;;;;;3.95;70.38;99620.31;5069322;28;20063;-49
2022/03/05 04:22:42;;;;;;;40.05;21.13;;;;;;;4.13;70.32;99622.75;5068692;28;20056;-48
2022/03/05 04:25:08;;;;;;;42.97;21.95;;;;;;;4.20;69.25;99618.50;5069085;28;20548;-49
2022/03/05 04:27:33;;;;;;;44.45;22.58;;;;;;;5.28;65.74;99619.88;5068786;28;20373;-50
2022/03/05 04:29:59;;;;;;;39.78;21.83;;;;;;;4.68;66.80;99621.22;5070906;28;20027;-49
2022/03/05 04:32:24;;;;;;;40.70;21.15;;;;;;;4.48;68.69;99623.41;5054883;28;20031;-48
2022/03/05 04:34:50;;;;;;;40.70;21.38;;;;;;;4.33;69.71;99623.28;5072701;28;20047;-51
2022/03/05 04:37:16;;;;;;;40.58;22.08;;;;;;;4.30;69.12;99627.06;5072649;28;20078;-49
2022/03/05 04:39:41;;;;;;;39.63;21.17;;;;;;;4.35;69.44;99628.38;5072800;28;20098;-49
2022/03/05 04:42:07;;;;;;;36.85;20.90;;;;;;;4.26;69.68;99617.00;5072037;28;20527;-49
2022/03/05 04:44:33;;;;;;;34.47;20.15;;;;;;;4.31;70.06;99617.34;5063807;28;20029;-49
2022/03/05 04:46:58;;;;;;;42.25;20.75;;;;;;;4.35;70.67;99623.09;5052383;28;20497;-49
2022/03/05 04:49:24;;;;;;;40.72;22.40;;;;;;;4.26;69.89;99620.47;5052662;28;20025;-49
2022/03/05 04:51:49;;;;;;;41.63;22.40;;;;;;;4.69;68.83;99621.06;5066123;28;20090;-48
2022/03/05 04:54:15;;;;;;;42.10;21.52;;;;;;;5.33;66.54;99625.47;5072517;28;20027;-49
2022/03/05 04:56:40;;;;;;;40.53;20.73;;;;;;;4.89;66.33;99620.69;5072445;28;20116;-49
2022/03/05 04:59:06;;;;;;;39.65;21.77;;;;;;;4.56;68.43;99615.50;5072649;28;20028;-48
2022/03/05 05:01:31;;;;;;;42.88;20.77;;;;;;;4.69;68.78;99622.88;5072167;28;20468;-47
2022/03/05 05:03:57;;;;;;;41.15;22.17;;;;;;;5.38;66.53;99625.78;5072029;28;20471;-49
2022/03/05 05:06:22;;;;;;;37.17;19.77;;;;;;;5.20;66.05;99625.22;5071949;28;20016;-48
2022/03/05 05:08:48;;;;;;;42.53;21.33;;;;;;;4.96;66.65;99631.38;5058476;28;20086;-48
2022/03/05 05:11:14;;;;;;;42.75;22.42;;;;;;;4.64;69.01;99627.84;5052540;28;20143;-49
2022/03/05 05:13:39;;;;;;;41.67;23.60;;;;;;;5.04;68.12;99642.72;5052005;28;20108;-48
2022/03/05 05:16:05;;;;;;;43.40;22.33;;;;;;;5.25;66.09;99643.97;5052490;28;20017;-48
2022/03/05 05:18:32;;;;;;;38.33;22.13;;;;;;;4.71;67.97;99647.28;5052209;28;20075;-48
2022/03/05 05:20:58;;;;;;;38.35;22.25;;;;;;;4.63;68.22;99644.66;5052150;28;20028;-49
2022/03/05 05:23:24;;;;;;;41.05;21.98;;;;;;;4.23;70.58;99647.16;5058879;28;20051;-47
2022/03/05 05:25:49;;;;;;;44.38;23.60;;;;;;;4.08;71.39;99656.69;5047512;28;20029;-49
2022/03/05 05:28:15;;;;;;;38.97;21.23;;;;;;;4.43;69.78;99650.25;5048842;28;20025;-49
2022/03/05 05:30:40;;;;;;;39.15;20.77;;;;;;;4.52;69.86;99661.63;5043296;28;20067;-52
2022/03/05 05:33:06;;;;;;;35.78;20.40;;;;;;;4.37;69.98;99663.28;5029373;28;20036;-50
2022/03/05 05:35:31;;;;;;;42.53;21.90;;;;;;;5.15;67.66;99660.00;5030339;28;20017;-49
2022/03/05 05:37:57;;;;;;;36.72;20.20;;;;;;;4.89;67.35;99665.50;5030395;28;20088;-52
2022/03/05 05:40:22;;;;;;;35.70;19.67;;;;;;;4.70;67.89;99671.97;5030101;28;20118;-50
2022/03/05 05:42:48;;;;;;;34.67;20.23;;;;;;;4.52;70.54;99679.25;5029094;28;20029;-52
2022/03/05 05:45:13;;;;;;;36.55;20.70;;;;;;;4.60;71.17;99674.78;5043678;28;20056;-50
2022/03/05 05:47:39;;;;;;;34.45;19.45;;;;;;;5.32;67.79;99688.97;5049732;28;20021;-50
2022/03/05 05:50:05;;;;;;;33.53;18.35;;;;;;;4.81;69.51;99691.91;5049667;28;20025;-49
2022/03/05 05:52:30;;;;;;;35.10;19.65;;;;;;;4.57;69.80;99701.50;5049205;28;20021;-50
2022/03/05 05:54:56;;;;;;;34.60;19.92;;;;;;;4.24;71.41;99700.66;5049581;28;20029;-49
2022/03/05 05:57:21;;;;;;;37.35;21.17;;;;;;;4.24;72.03;99703.28;5048860;28;20020;-49
2022/03/05 05:59:47;;;;;;;38.75;22.02;;;;;;;4.35;72.11;99704.78;5050014;28;20076;-49
2022/03/05 06:02:12;;;;;;;40.60;22.25;;;;;;;4.34;72.42;99703.97;5050331;28;20079;-49
2022/03/05 06:04:38;;;;;;;46.38;23.33;;;;;;;5.06;70.32;99708.50;5037424;28;20025;-50
2022/03/05 06:07:03;;;;;;;40.95;23.17;;;;;;;5.03;69.65;99706.22;5034054;28;20695;-48
2022/03/05 06:09:29;;;;;;;47.17;24.33;;;;;;;4.77;70.94;99704.59;5034633;28;20032;-50
2022/03/05 06:11:54;;;;;;;46.40;25.42;;;;;;;4.43;72.92;99710.06;5029644;28;20068;-51
2022/03/05 06:14:19;;;;;;;47.72;26.60;;;;;;;4.43;73.07;99713.50;5039653;28;20029;-53
2022/03/05 06:16:45;;;;;;;45.80;26.23;;;;;;;4.50;73.30;99713.69;5050516;28;20032;-51
2022/03/05 06:19:10;;;;;;;48.70;27.48;;;;;;;4.35;74.48;99710.88;5040821;28;20029;-49
2022/03/05 06:21:37;;;;;;;51.92;29.00;;;;;;;4.72;74.05;99724.53;5029915;28;20032;-50
2022/03/05 06:24:03;;;;;;;87.15;46.33;;;;;;;5.35;70.62;99722.94;5029970;28;20049;-48
2022/03/05 06:26:30;;;;;;;67.95;36.97;;;;;;;5.14;70.52;99713.78;5029524;28;20350;-49
2022/03/05 06:28:55;;;;;;;85.50;46.53;;;;;;;5.04;71.73;99721.03;5030485;28;20096;-48
2022/03/05 06:31:21;;;;;;;69.57;39.60;;;;;;;4.97;72.11;99718.25;5037451;28;20102;-48
2022/03/05 06:33:46;;;;;;;50.83;28.13;;;;;;;4.92;72.36;99711.84;5049946;28;20600;-49
2022/03/05 06:36:12;;;;;;;49.60;28.83;;;;;;;5.13;71.27;99719.22;5036420;28;20012;-50
2022/03/05 06:38:37;;;;;;;51.85;30.23;;;;;;;5.85;68.97;99721.75;5050431;28;20447;-48
2022/03/05 06:41:03;;;;;;;51.08;27.48;;;;;;;5.31;71.00;99734.81;5038115;28;20021;-49
2022/03/05 06:43:28;;;;;;;50.35;27.92;;;;;;;5.23;71.84;99741.75;5030301;28;20602;-50
2022/03/05 06:45:53;;;;;;;47.03;28.10;;;;;;;5.07;71.97;99739.19;5048603;28;20476;-48
2022/03/05 06:48:19;;;;;;;48.80;29.02;;;;;;;4.82;72.88;99739.22;5050271;28;20393;-51
2022/03/05 06:50:44;;;;;;;46.38;27.45;;;;;;;4.79;73.04;99741.34;5054863;28;20024;-48
2022/03/05 06:53:10;;;;;;;48.25;27.48;;;;;;;4.81;73.68;99742.81;5052402;28;20020;-49
2022/03/05 06:55:35;;;;;;;45.88;26.80;;;;;;;4.89;72.64;99748.09;5050270;28;20036;-49
2022/03/05 06:58:01;;;;;;;42.40;24.88;;;;;;;4.88;73.56;99748.28;5050468;28;20381;-53
2022/03/05 07:00:26;;;;;;;36.03;21.52;;;;;;;5.06;72.57;99751.56;5049476;28;20028;-49
2022/03/05 07:02:52;;;;;;;38.13;22.17;;;;;;;5.01;72.42;99761.78;5050104;28;20032;-51
2022/03/05 07:05:17;;;;;;;39.13;22.13;;;;;;;4.97;72.87;99759.63;5049789;28;20190;-48
2022/03/05 07:07:43;;;;;;;37.13;21.38;;;;;;;4.98;74.03;99759.44;5049964;28;20032;-50
2022/03/05 07:10:09;;;;;;;35.88;21.33;;;;;;;5.05;73.26;99767.53;5049811;28;20473;-51
2022/03/05 07:12:35;;;;;;;38.35;21.83;;;;;;;4.96;74.20;99761.44;5049994;28;20029;-51
2022/03/05 07:15:01;;;;;;;33.75;21.08;;;;;;;4.80;73.93;99761.47;5050170;28;20413;-52
2022/03/05 07:17:26;;;;;;;41.50;21.83;;;;;;;4.79;73.94;99760.63;5050080;28;20025;-52
2022/03/05 07:19:54;;;;;;;43.17;23.63;;;;;;;5.17;74.12;99760.09;5049973;28;20027;-53
2022/03/05 07:22:19;;;;;;;37.88;21.90;;;;;;;5.78;71.66;99766.50;5049659;28;20040;-52
2022/03/05 07:24:45;;;;;;;39.92;22.02;;;;;;;5.35;72.52;99763.38;5049816;28;20041;-50
2022/03/05 07:27:10;;;;;;;39.83;22.95;;;;;;;5.32;73.03;99768.97;5049657;28;20021;-51
2022/03/05 07:29:36;;;;;;;42.67;22.85;;;;;;;5.23;73.35;99768.16;5049305;28;20047;-53
2022/03/05 07:32:03;;;;;;;41.70;23.95;;;;;;;5.40;72.56;99779.50;5049747;28;20051;-53
2022/03/05 07:34:29;;;;;;;41.95;23.05;;;;;;;5.42;72.70;99766.94;5049552;28;20439;-53
2022/03/05 07:36:55;;;;;;;38.80;22.90;;;;;;;6.95;90.49;99773.53;5049303;28;20025;-53
2022/03/05 07:39:20;;;;;;;36.75;22.90;;;;;;;6.77;73.18;99771.22;5043353;28;20025;-51
2022/03/05 07:41:46;;;;;;;43.08;25.05;;;;;;;6.29;72.41;99770.56;5028722;28;20091;-51
2022/03/05 07:44:11;;;;;;;63.13;32.97;;;;;;;5.87;75.91;99773.41;5029496;28;20053;-50
2022/03/05 07:46:37;;;;;;;115.82;57.10;;;;;;;5.83;76.28;99772.09;5013459;28;20040;-49
2022/03/05 07:49:03;;;;;;;54.22;29.05;;;;;;;5.63;75.30;99776.13;5049428;28;20029;-49
2022/03/05 07:51:28;;;;;;;37.97;21.58;;;;;;;5.62;74.13;99772.66;5057251;28;20071;-49
2022/03/05 07:53:54;;;;;;;36.83;21.08;;;;;;;5.94;72.49;99775.34;5049267;28;20158;-48
2022/03/05 07:56:20;;;;;;;38.10;21.75;;;;;;;5.68;75.01;99782.53;5049376;28;20111;-51
2022/03/05 07:58:46;;;;;;;37.33;21.02;;;;;;;5.44;74.80;99782.63;5049402;28;20032;-50
2022/03/05 08:01:11;;;;;;;35.63;20.65;;;;;;;5.17;75.81;99778.56;5068481;28;20032;-51
2022/03/05 08:03:37;;;;;;;32.13;19.40;;;;;;;5.14;75.72;99779.72;5069241;28;20027;-50
2022/03/05 08:06:02;;;;;;;33.47;19.95;;;;;;;5.20;75.81;99773.78;5054700;28;20043;-52
2022/03/05 08:08:28;;;;;;;37.65;21.25;;;;;;;5.36;74.47;99775.53;5073425;28;20036;-52
2022/03/05 08:10:54;;;;;;;39.80;22.00;;;;;;;5.19;74.96;99780.03;5054817;28;20032;-52
2022/03/05 08:13:19;;;;;;;42.45;22.85;;;;;;;5.23;75.93;99777.88;5073210;28;20043;-50
2022/03/05 08:15:45;;;;;;;43.65;24.27;;;;;;;5.39;76.45;99777.03;5058595;28;20024;-54
2022/03/05 08:18:10;;;;;;;47.72;25.42;;;;;;;5.52;75.37;99779.97;5052824;28;20021;-52
2022/03/05 08:20:36;;;;;;;42.58;25.02;;;;;;;5.44;74.86;99775.53;5034708;28;20028;-52
2022/03/05 08:23:01;;;;;;;43.50;25.40;;;;;;;5.20;76.08;99780.88;5052769;28;20067;-52
2022/03/05 08:25:27;;;;;;;48.25;26.90;;;;;;;5.32;75.86;99786.63;5052730;28;20429;-53
2022/03/05 08:27:52;;;;;;;48.25;26.60;;;;;;;5.36;77.22;99785.28;5050299;28;20040;-54
2022/03/05 08:30:18;;;;;;;53.70;28.30;;;;;;;5.34;77.07;99782.81;5052935;28;20025;-51
2022/03/05 08:32:43;;;;;;;54.35;30.80;;;;;;;5.51;78.91;99788.06;5052672;28;20013;-51
2022/03/05 08:35:09;;;;;;;51.13;22.33;;;;;;;8.13;95.05;99798.38;5052637;28;20457;-54
2022/03/05 08:37:35;;;;;;;75.78;40.10;;;;;;;7.63;69.39;99795.50;5052538;28;20040;-52
2022/03/05 08:40:01;;;;;;;55.28;31.27;;;;;;;7.49;80.26;99799.00;5034609;28;20094;-53
2022/03/05 08:42:26;;;;;;;49.85;29.45;;;;;;;7.22;71.11;99788.84;5049873;28;20483;-53
2022/03/05 08:44:52;;;;;;;45.10;26.25;;;;;;;6.38;72.60;99798.59;5052363;28;20397;-52
2022/03/05 08:47:17;;;;;;;45.13;25.88;;;;;;;6.16;73.99;99800.22;5052544;28;20083;-53
2022/03/05 08:49:42;;;;;;;43.60;25.48;;;;;;;6.77;78.35;99803.75;5052467;28;20473;-52
2022/03/05 08:52:08;;;;;;;40.35;24.35;;;;;;;6.70;74.66;99802.00;5060520;28;20033;-54
2022/03/05 08:54:34;;;;;;;42.85;25.58;;;;;;;6.45;74.63;99796.88;5052851;28;20477;-53
2022/03/05 08:56:59;;;;;;;51.72;29.63;;;;;;;6.19;76.01;99803.31;5052551;28;20025;-54
2022/03/05 08:59:25;;;;;;;55.03;31.65;;;;;;;6.05;77.63;99806.69;5052845;28;20044;-53
2022/03/05 09:01:50;;;;;;;69.00;36.55;;;;;;;6.03;77.38;99808.69;5034454;28;20444;-53
2022/03/05 09:04:16;;;;;;;56.35;33.83;;;;;;;5.98;80.36;99817.13;5052380;28;20032;-50
2022/03/05 09:06:41;;;;;;;56.08;31.23;;;;;;;6.52;77.89;99820.81;5052661;28;20107;-53
2022/03/05 09:09:07;;;;;;;58.03;31.15;;;;;;;6.14;77.60;99808.31;5052265;28;20473;-54
2022/03/05 09:11:34;;;;;;;53.95;29.88;;;;;;;5.92;79.05;99809.03;5052375;28;20037;-54
2022/03/05 09:13:59;;;;;;;49.92;29.80;;;;;;;5.80;78.76;99809.41;5052454;28;20033;-54
2022/03/05 09:16:25;;;;;;;54.25;30.98;;;;;;;5.73;78.76;99810.25;5051483;28;20029;-53
2022/03/05 09:18:50;;;;;;;50.50;28.95;;;;;;;5.31;80.13;99820.09;5052358;28;20024;-54
2022/03/05 09:21:16;;;;;;;50.95;30.05;;;;;;;5.47;82.46;99817.41;5052323;28;20456;-54
2022/03/05 09:23:41;;;;;;;58.13;30.65;;;;;;;6.18;80.34;99814.88;5065303;28;20056;-53
2022/03/05 09:26:08;;;;;;;52.92;29.13;;;;;;;5.79;78.20;99813.06;5072006;28;20359;-52
2022/03/05 09:28:33;;;;;;;52.92;29.65;;;;;;;5.63;80.32;99821.81;5071791;28;20028;-53
2022/03/05 09:30:59;;;;;;;68.63;36.88;;;;;;;5.83;77.73;99814.34;5071688;28;20013;-54
2022/03/05 09:33:25;;;;;;;45.00;26.90;;;;;;;5.71;78.21;99809.59;5071721;28;20081;-53
2022/03/05 09:35:51;;;;;;;42.10;24.27;;;;;;;5.91;75.29;99810.84;5071722;28;20086;-51
2022/03/05 09:38:16;;;;;;;41.78;24.67;;;;;;;5.86;75.41;99821.09;5056630;28;20473;-53
2022/03/05 09:40:42;;;;;;;42.53;25.50;;;;;;;6.44;75.28;99825.16;5041630;28;20025;-52
2022/03/05 09:43:07;;;;;;;40.55;24.38;;;;;;;6.50;74.17;99825.47;5041890;28;20017;-52
2022/03/05 09:45:33;;;;;;;47.60;25.40;;;;;;;6.13;76.01;99829.59;5039682;28;20013;-54
2022/03/05 09:47:58;;;;;;;49.35;27.48;;;;;;;5.96;77.13;99827.06;5042085;28;20017;-54
2022/03/05 09:50:25;;;;;;;48.33;26.27;;;;;;;6.02;76.91;99831.66;5040196;28;20029;-51
2022/03/05 09:52:50;;;;;;;49.20;26.70;;;;;;;5.86;76.83;99824.59;5040449;28;20021;-54
2022/03/05 09:55:16;;;;;;;42.80;26.45;;;;;;;5.88;76.84;99840.25;5039539;28;20421;-52
2022/03/05 09:57:42;;;;;;;45.92;26.45;;;;;;;5.90;77.43;99830.31;5031143;28;20029;-56
2022/03/05 10:00:07;;;;;;;44.88;25.90;;;;;;;5.91;76.56;99824.06;5037547;28;20022;-52
2022/03/05 10:02:33;;;;;;;43.45;24.73;;;;;;;6.01;76.46;99819.41;5041996;28;20028;-53
2022/03/05 10:05:24;;;;;;;48.67;26.05;;;;;;;6.53;76.65;99817.16;5031169;28;20378;-54
2022/03/05 10:08:07;;;;;;;43.33;24.50;;;;;;;6.84;73.53;99810.00;5031287;28;20155;-52
2022/03/05 10:10:43;;;;;;;44.65;24.42;;;;;;;6.72;76.00;99813.22;5030998;28;20079;-52
2022/03/05 10:13:28;;;;;;;41.00;23.20;;;;;;;6.67;73.64;99797.09;5030852;28;20099;-51
2022/03/05 10:16:01;;;;;;;42.42;24.63;;;;;;;6.79;75.71;99796.47;5031095;28;20025;-50
2022/03/05 10:18:30;;;;;;;41.13;23.42;;;;;;;6.91;74.96;99798.69;5031208;28;20205;-51
2022/03/05 10:20:56;;;;;;;35.90;21.38;;;;;;;7.83;70.15;99801.91;5039773;28;20103;-51
2022/03/05 10:23:22;;;;;;;36.38;21.33;;;;;;;7.97;68.69;99799.44;5052985;28;20127;-51
2022/03/05 10:25:57;;;;;;;36.15;21.50;;;;;;;7.68;69.32;99792.34;5070725;28;20036;-51
2022/03/05 10:28:24;;;;;;;36.05;22.70;;;;;;;7.50;70.97;99787.38;5070368;28;20017;-51
2022/03/05 10:30:54;;;;;;;35.88;21.80;;;;;;;7.62;71.17;99800.00;5070691;28;20032;-51
2022/03/05 10:33:33;;;;;;;35.42;21.15;;;;;;;7.42;71.92;99796.25;5070409;28;20024;-52
2022/03/05 10:36:06;;;;;;;34.35;21.60;;;;;;;8.08;69.41;99767.16;5071114;28;20020;-49
2022/03/05 10:38:50;;;;;;;34.75;20.35;;;;;;;9.02;65.82;99781.34;5052393;28;20036;-49
2022/03/05 10:41:40;;;;;;;29.05;18.40;;;;;;;8.77;63.90;99781.75;5068978;28;20032;-48
2022/03/05 10:44:16;;;;;;;32.28;19.58;;;;;;;8.76;64.16;99780.13;5066880;28;20063;-49
2022/03/05 10:46:42;;;;;;;48.80;28.08;;;;;;;8.61;64.80;99780.19;5070029;28;20013;-50
2022/03/05 10:49:18;;;;;;;33.17;20.27;;;;;;;8.68;65.97;99783.72;5070129;28;20565;-48
2022/03/05 10:51:45;;;;;;;32.67;19.45;;;;;;;9.22;63.66;99786.81;5068547;28;20028;-49
2022/03/05 10:54:11;;;;;;;31.67;19.77;;;;;;;8.70;63.14;99788.81;5069706;28;20424;-48
2022/03/05 10:56:36;;;;;;;30.02;19.05;;;;;;;8.51;65.54;99777.84;5052135;28;20016;-37
2022/03/05 10:59:11;;;;;;;31.95;19.52;;;;;;;8.74;64.96;99779.47;5070134;28;20052;-38
2022/03/05 11:01:43;;;;;;;33.95;21.42;;;;;;;8.50;66.85;99780.69;5052840;28;20528;-39
2022/03/05 11:04:10;;;;;;;29.40;18.95;;;;;;;8.59;65.92;99780.34;5070194;28;20028;-38
2022/03/05 11:06:39;;;;;;;30.77;19.52;;;;;;;8.53;64.29;99767.03;5069699;28;20107;-38
2022/03/05 11:09:12;;;;;;;30.85;18.80;;;;;;;8.52;64.48;99771.50;5069655;28;20048;-38
2022/03/05 11:11:39;;;;;;;28.73;17.77;;;;;;;8.88;61.24;99752.03;5070343;28;20027;-39
2022/03/05 11:14:05;;;;;;;30.08;17.83;;;;;;;9.38;60.04;99751.97;5052370;28;20400;-39
2022/03/05 11:16:31;;;;;;;26.67;17.02;;;;;;;9.02;61.13;99760.09;5070180;28;20016;-37
2022/03/05 11:18:56;;;;;;;24.50;16.83;;;;;;;9.06;61.55;99758.69;5032449;28;20044;-38
2022/03/05 11:21:24;;;;;;;26.65;17.75;;;;;;;9.01;61.87;99748.66;5064272;28;20381;-38